Tiempo atmosférico en la estación meteorológica de Valdezcaray, estación de esquí, La Rioja (1630 m.)



Fecha
DESCASC
Temp. máxima en grados centígrados (hora)
DESCASC
Temp. mínima en grados centígrados (hora)
DESCASC
Temp. media en grados centígrados
DESCASC
Racha de viento máxima en m/sg (hora)
DESCASC
Velocidad máxima media en intervalos de 10 minutos(hora)
DESCASC
Precipitaciones diarias en mm
DESCASC
Precipitaciones de 00:00 a 06:00 en mm
DESCASC
Precipitaciones de 06:00 a 12:00 en mm
DESCASC
Precipitaciones de 12:00 a 18:00 en mm
DESCASC
Precipitaciones de 18:00 a 24:00 en mm
DESCASC
23-06-2019 22.3 (17:00) 16 (09:20) 19.1 13.89 (04:30) 8.61 (05:30) 0 0 0 0 0
22-06-2019 20.7 (20:20) 7.5 (00:10) 14.1 11.67 (15:20) 6.11 (09:10) 0 0 0 0 0
21-06-2019 8.6 (14:00) 5.6 (06:30) 7.1 6.11 (05:10) 3.89 (05:10) 15 13.8 1 0.2 0
20-06-2019 11.1 (00:50) 7.3 (00:00) 9.2 6.39 (14:00) 3.61 (14:00) 12.8 0 0 0.4 12.4
19-06-2019 -- (--) -- (--) -- -- (--) -- (--) -- -- -- -- 0
18-06-2019 -- (--) -- (--) -- -- (--) -- (--) -- 0 0 0 --
17-06-2019 22.6 (17:50) 11.7 (00:00) 17.2 12.22 (15:50) 7.5 (00:10) 0 0 0 0 0
16-06-2019 18 (17:30) 6.2 (00:00) 12.1 8.33 (23:10) 6.94 (23:59) 0 0 0 0 0
15-06-2019 13.6 (18:20) 4.6 (00:00) 9.1 6.11 (09:30) 3.61 (17:50) 0 0 0 0 0
14-06-2019 15.5 (14:20) 6.2 (00:00) 10.8 12.22 (06:00) 7.22 (06:00) 0 0 0 0 0
13-06-2019 17.9 (18:50) 6.5 (00:00) 12.2 13.61 (17:00) 8.33 (02:20) 0 0 0 0 0
12-06-2019 12.2 (19:30) 0.2 (00:00) 6.2 14.17 (15:10) 6.67 (16:30) 0 0 0 0 0
11-06-2019 5 (17:50) 0.4 (00:00) 2.7 10 (18:10) 5.83 (18:10) 7.4 5.8 1.4 0.2 0
10-06-2019 6.4 (19:00) 2.4 (00:00) 4.4 5.83 (23:00) 3.89 (23:10) 1.2 0.8 0.2 0 0.2
09-06-2019 13.5 (14:40) 4.3 (00:00) 8.9 11.39 (06:40) 6.67 (00:10) 1.4 0 0 0 1.4
08-06-2019 14.3 (17:00) 4.1 (00:00) 9.2 11.39 (16:50) 6.94 (10:10) 0 0 0 0 0
07-06-2019 10.6 (00:00) 1.2 (00:00) 5.9 23.61 (00:30) 12.22 (01:10) 6.6 6.6 0 0 0
06-06-2019 13.7 (19:30) 2.4 (00:00) 8 20.28 (21:20) 10 (22:20) 0 0 0 0 0
05-06-2019 6.2 (00:00) 0.5 (00:00) 3.3 7.78 (10:20) 4.44 (10:20) 14.2 1.8 9.8 2.6 0
04-06-2019 18.2 (15:50) 6.2 (00:00) 12.2 19.72 (08:40) 10 (08:10) 0 0 0 0 0
03-06-2019 21.7 (19:00) 14.4 (00:00) 18.1 16.39 (17:40) 10 (17:50) 0 0 0 0 0
02-06-2019 22.8 (15:20) 15 (00:00) 18.9 13.33 (15:30) 8.89 (04:10) 0 0 0 0 0
01-06-2019 21.9 (17:50) 13 (00:00) 17.4 8.06 (23:40) 6.67 (23:40) 0 0 0 0 0
31-05-2019 19.9 (18:00) 10.7 (00:00) 15.3 7.22 (05:20) 5.56 (05:20) 0 0 0 0 0
30-05-2019 17.6 (15:30) 5.9 (00:00) 11.8 8.61 (15:40) 4.44 (06:50) 0 0 0 0 0
29-05-2019 9.4 (21:00) 1.6 (00:00) 5.5 7.22 (18:20) 4.44 (18:30) 0.4 0 0.4 0 0
28-05-2019 5.7 (15:00) 1.2 (00:00) 3.4 8.61 (15:50) 4.44 (16:00) 0 0 0 0 0

Gráficas

Temp. máximas Temp. mínimas Temp. medias Precipitaciones Rachas de viento máximas Velocidades máximas media en intervalos de 10 minutos

Datos horarios

Fecha y hora oficial Temperatura (ºC) Velocidad del viento (km/h) Dirección del viento Racha (km/h) Dirección de racha Precipitación (mm) Presión (hPa) Tendencia (hPa) Humedad (%)
2019-06-26 23:00:00 23.5 11 Este 30 Sudeste 0 -- -- 46
2019-06-26 22:00:00 22.9 16 Este 32 Este 0 -- -- 51
2019-06-26 21:00:00 25.1 14 Este 38 Este 0 -- -- 46
2019-06-26 20:00:00 27.3 10 Norte 34 Nordeste 0 -- -- 39
2019-06-26 19:00:00 28.5 9 Norte 25 Sur 0 -- -- 34
2019-06-26 18:00:00 28.5 9 Noroeste 27 Norte 0 -- -- 30
2019-06-26 17:00:00 28 10 Noroeste 41 Noroeste 0 -- -- 29
2019-06-26 16:00:00 27 10 Sudeste 33 Este 0 -- -- 35
2019-06-26 15:00:00 25.8 9 Este 25 Sudeste 0 -- -- 38
2019-06-26 14:00:00 24.6 11 Nordeste 26 Sudeste 0 -- -- 44
2019-06-26 13:00:00 23.8 13 Este 30 Sudeste 0 -- -- 47
2019-06-26 12:00:00 22.7 6 Norte 28 Este 0 -- -- 55
2019-06-26 11:00:00 21.5 14 Este 35 Este 0 -- -- 53
2019-06-26 10:00:00 21 11 Nordeste 30 Oeste 0 -- -- 57
2019-06-26 09:00:00 21.1 13 Este 33 Sudeste 0 -- -- 56
2019-06-26 08:00:00 19.3 17 Este 40 Este 0 -- -- 62
2019-06-26 07:00:00 17.5 23 Sudeste 45 Sudeste 0 -- -- 70
2019-06-26 06:00:00 18.2 16 Este 38 Sudeste 0 -- -- 66
2019-06-26 05:00:00 18.8 14 Este 42 Noroeste 0 -- -- 67
2019-06-26 04:00:00 19.4 12 Este 29 Sudeste 0 -- -- 62
2019-06-26 03:00:00 20.1 12 Sudeste 34 Sudeste 0 -- -- 60
2019-06-26 02:00:00 20.6 11 Sudeste 23 Sudeste 0 -- -- 57
2019-06-26 01:00:00 20.5 10 Sudeste 20 Sudeste 0 -- -- 57
2019-06-26 00:00:00 20.9 9 Sudeste 28 Sudeste 0 -- -- 53
2019-06-25 23:00:00 19.7 17 Este 21 Este 0 -- -- 56
2019-06-25 22:00:00 20 16 Este 27 Este 0 -- -- 61
2019-06-25 21:00:00 22.8 9 Sudoeste 16 Sudoeste 0 -- -- 37
2019-06-25 20:00:00 21.6 5 Noroeste 21 Este 0 -- -- 63
2019-06-25 19:00:00 22.9 4 Noroeste 26 Este 0 -- -- 59
2019-06-25 18:00:00 22.6 7 Noroeste 21 Este 0 -- -- 60
2019-06-25 17:00:00 21.3 9 Noroeste 17 Noroeste 0 -- -- 68
2019-06-25 16:00:00 21.6 10 Noroeste 25 Sudeste 0 -- -- 64
2019-06-25 15:00:00 22.3 11 Sudeste 42 Sudoeste 0 -- -- 41
2019-06-25 14:00:00 21.7 13 Sudoeste 44 Sur 0 -- -- 42
2019-06-25 13:00:00 20.5 8 Norte 21 Noroeste 0 -- -- 57
2019-06-25 12:00:00 20.2 10 Sudoeste 30 Sudeste 0 -- -- 50
2019-06-25 11:00:00 19.3 9 Sudeste 35 Este 0 -- -- 57
2019-06-25 10:00:00 18 7 Nordeste 26 Nordeste 0 -- -- 55
2019-06-25 09:00:00 16.5 6 Este 28 Sudeste 0 -- -- 60
2019-06-25 08:00:00 16.7 16 Este 31 Este 0 -- -- 57
2019-06-25 07:00:00 16.5 13 Sudeste 25 Sur 0 -- -- 58
2019-06-25 06:00:00 17.2 12 Sur 31 Sudoeste 0 -- -- 54
2019-06-25 05:00:00 15.9 10 Este 26 Sudeste 0 -- -- 61
2019-06-25 04:00:00 14.3 9 Sudeste 23 Este 0 -- -- 72
2019-06-25 03:00:00 10.6 3 Sudeste 9 Sur 0 -- -- 86
2019-06-25 02:00:00 10.4 4 Sudeste 7 Sudeste 0 -- -- 89
2019-06-25 01:00:00 10.7 6 Sudeste 8 Sudeste 0 -- -- 90
2019-06-25 00:00:00 11.6 0 Calma 7 Sudoeste 0 -- -- 89
2019-06-24 23:00:00 13 3 Este 19 Noroeste 0 -- -- 82
2019-06-24 22:00:00 16.9 5 Sudoeste 19 Oeste 0 -- -- 71
2019-06-24 21:00:00 19.2 7 Este 28 Sudoeste 0 -- -- 49
2019-06-24 20:00:00 19.7 7 Sudoeste 28 Sur 0 -- -- 48
2019-06-24 19:00:00 20.1 5 Nordeste 15 Noroeste 0 -- -- 52
2019-06-24 18:00:00 20 7 Noroeste 29 Sudoeste 0 -- -- 47
2019-06-24 17:00:00 19.3 7 Noroeste 36 Sudoeste 0 -- -- 55
2019-06-24 16:00:00 20.4 10 Sur 24 Sur 0 -- -- 46
2019-06-24 15:00:00 20.1 12 Norte 30 Norte 0 -- -- 48
2019-06-24 14:00:00 19.7 12 Sur 25 Sur 0 -- -- 47
2019-06-24 13:00:00 19.5 8 Sur 24 Sudeste 0 -- -- 46
2019-06-24 12:00:00 18.7 17 Sudeste 28 Sudeste 0 -- -- 45
2019-06-24 11:00:00 17.8 16 Sudeste 24 Norte 0 -- -- 47
2019-06-24 10:00:00 17.9 7 Oeste 24 Sudeste 0 -- -- 44
2019-06-24 09:00:00 16.7 21 Sudeste 34 Sudeste 0 -- -- 45
2019-06-24 08:00:00 17.3 21 Sudeste 44 Sur 0 -- -- 44
2019-06-24 07:00:00 16.6 15 Sudeste 33 Sur 0 -- -- 49
2019-06-24 06:00:00 16.6 16 Sudeste 36 Sur 0 -- -- 51
2019-06-24 05:00:00 17.6 17 Sur 48 Sur 0 -- -- 49
2019-06-24 04:00:00 18.7 14 Este 39 Este 0 -- -- 43
2019-06-24 03:00:00 19.7 12 Este 33 Este 0 -- -- 37
2019-06-24 02:00:00 18.8 15 Este 25 Este 0 -- -- 38
2019-06-24 01:00:00 19.9 10 Sudeste 21 Este 0 -- -- 33
2019-06-24 00:00:00 19.2 10 Este 16 Este 0 -- -- 36
2019-06-23 23:00:00 17.5 4 Este 17 Este 0 -- -- 57
2019-06-23 22:00:00 19 4 Sur 16 Este 0 -- -- 36
2019-06-23 21:00:00 20.7 13 Sudeste 24 Sudeste 0 -- -- 36
2019-06-23 20:00:00 21.4 11 Sudeste 25 Sudeste 0 -- -- 40
2019-06-23 19:00:00 20.8 5 Oeste 15 Oeste 0 -- -- 46
2019-06-23 18:00:00 21.3 8 Noroeste 19 Noroeste 0 -- -- 44
2019-06-23 17:00:00 22.3 8 Norte 34 Sur 0 -- -- 41
2019-06-23 16:00:00 21.2 10 Noroeste 24 Oeste 0 -- -- 41
2019-06-23 15:00:00 20.8 7 Norte 42 Sur 0 -- -- 41
2019-06-23 14:00:00 20.2 10 Este 37 Sudeste 0 -- -- 39
2019-06-23 13:00:00 19.5 8 Noroeste 38 Noroeste 0 -- -- 46
2019-06-23 12:00:00 18.3 6 Norte 18 Este 0 -- -- 51
2019-06-23 11:00:00 17.4 5 Noroeste 22 Sudeste 0 -- -- 53
2019-06-23 10:00:00 17.6 13 Sudeste 37 Sudeste 0 -- -- 44
2019-06-23 09:00:00 16.3 17 Sudeste 38 Sudeste 0 -- -- 45
2019-06-23 08:00:00 17.3 14 Sudeste 39 Sudeste 0 -- -- 40
2019-06-23 07:00:00 17.2 21 Sudeste 44 Sudeste 0 -- -- 42
2019-06-23 06:00:00 17.6 29 Sudeste 49 Sudeste 0 -- -- 40
2019-06-23 05:00:00 17.7 21 Sudeste 50 Sudeste 0 -- -- 39
2019-06-23 04:00:00 17.7 25 Sudeste 45 Sudeste 0 -- -- 40
2019-06-23 03:00:00 17.2 23 Sur 48 Sur 0 -- -- 39
2019-06-23 02:00:00 17.8 26 Sudeste 48 Sudeste 0 -- -- 38
2019-06-23 01:00:00 18.3 15 Sudeste 30 Sur 0 -- -- 38
2019-06-23 00:00:00 18.5 14 Sudeste 26 Este 0 -- -- 40
2019-06-22 23:00:00 18.4 14 Sudeste 28 Sur 0 -- -- 42
2019-06-22 22:00:00 18.7 10 Sudeste 19 Sur 0 -- -- 47
2019-06-22 21:00:00 19.9 8 Sudeste 17 Sudeste 0 -- -- 43
2019-06-22 20:00:00 20.4 5 Norte 14 Norte 0 -- -- 48
2019-06-22 19:00:00 20.5 8 Norte 30 Nordeste 0 -- -- 43
2019-06-22 18:00:00 20.6 13 Norte 41 Norte 0 -- -- 40
2019-06-22 17:00:00 20 19 Noroeste 36 Norte 0 -- -- 37
2019-06-22 16:00:00 19.4 21 Norte 42 Noroeste 0 -- -- 41
2019-06-22 15:00:00 18.7 17 Norte 35 Noroeste 0 -- -- 51
2019-06-22 14:00:00 17.8 15 Norte 35 Norte 0 -- -- 51
2019-06-22 13:00:00 16.9 11 Norte 25 Norte 0 -- -- 51
2019-06-22 12:00:00 16 9 Norte 30 Sudeste 0 -- -- 54
2019-06-22 11:00:00 15.2 19 Sur 35 Sur 0 -- -- 55
2019-06-22 10:00:00 14.3 16 Sudeste 36 Sudeste 0 -- -- 54
2019-06-22 09:00:00 13 21 Sudeste 33 Sudeste 0 -- -- 55
2019-06-22 08:00:00 11.4 8 Sur 18 Sur 0 -- -- 49
2019-06-22 07:00:00 8.5 9 Este 19 Sudeste 0 -- -- 53
2019-06-22 06:00:00 8.6 14 Sudeste 24 Sudeste 0 -- -- 60
2019-06-22 05:00:00 8.3 11 Sudeste 17 Sudeste 0 -- -- 58
2019-06-22 04:00:00 9.2 13 Sudeste 24 Sudeste 0 -- -- 55
2019-06-22 03:00:00 8.6 14 Sudeste 23 Este 0 -- -- 66
2019-06-22 02:00:00 7.7 16 Este 23 Este 0 -- -- 70
2019-06-22 01:00:00 8.9 15 Sudeste 19 Sudeste 0 -- -- 67
2019-06-22 00:00:00 8.1 11 Este 17 Este 0 -- -- 76
2019-06-21 23:00:00 6.6 5 Sudeste 10 Este 0 -- -- 100
2019-06-21 22:00:00 7.5 4 Sur 8 Sudeste 0 -- -- 100
2019-06-21 21:00:00 8 3 Norte 10 Noroeste 0 -- -- 100
2019-06-21 20:00:00 8 6 Noroeste 10 Noroeste 0 -- -- 100
2019-06-21 19:00:00 8 6 Noroeste 9 Noroeste 0 -- -- 100
2019-06-21 18:00:00 8.1 5 Noroeste 11 Noroeste 0 -- -- 100
2019-06-21 17:00:00 8 6 Noroeste 13 Noroeste 0 -- -- 100
2019-06-21 16:00:00 8 4 Noroeste 11 Noroeste 0 -- -- 100
2019-06-21 15:00:00 8.1 7 Noroeste 16 Noroeste 0 -- -- 100
2019-06-21 14:00:00 8.6 7 Noroeste 11 Noroeste 0 -- -- 100
2019-06-21 13:00:00 6.9 5 Noroeste 10 Noroeste 0.2 -- -- 100
2019-06-21 12:00:00 7.1 4 Noroeste 10 Norte 0.2 -- -- 100
2019-06-21 11:00:00 6.7 6 Noroeste 9 Noroeste 0.6 -- -- 100
2019-06-21 10:00:00 6.5 6 Noroeste 10 Noroeste 0.2 -- -- 100
2019-06-21 09:00:00 6.6 4 Noroeste 8 Noroeste 0 -- -- 100
2019-06-21 08:00:00 6 3 Sur 15 Oeste 0 -- -- 100
2019-06-21 07:00:00 5.8 5 Sudeste 22 Este 0 -- -- 100
2019-06-21 06:00:00 6.1 9 Sudeste 22 Este 0 -- -- 100
2019-06-21 05:00:00 6.6 14 Sur 21 Sur 0.8 -- -- 100
2019-06-21 04:00:00 7 5 Noroeste 11 Noroeste 1 -- -- 100
2019-06-21 03:00:00 7.1 5 Noroeste 11 Norte 1.4 -- -- 100
2019-06-21 02:00:00 7.3 3 Noroeste 10 Noroeste 6.6 -- -- 100
2019-06-21 01:00:00 7.4 3 Noroeste 9 Oeste 4 -- -- 100
2019-06-21 00:00:00 7.3 8 Noroeste 18 Noroeste 0.6 -- -- 100
2019-06-20 23:00:00 8.1 6 Noroeste 12 Noroeste 1.6 -- -- 100
2019-06-20 22:00:00 8.2 0 Calma 14 Sudeste 3 -- -- 100
2019-06-20 21:00:00 8.7 11 Sudeste 22 Este 2 -- -- 100
2019-06-20 20:00:00 8.6 3 Oeste 12 Noroeste 1.2 -- -- 100
2019-06-20 19:00:00 8.7 6 Noroeste 16 Noroeste 4 -- -- 100
2019-06-20 18:00:00 9.2 2 Este 16 Noroeste 0.4 -- -- 100
2019-06-20 17:00:00 9.6 4 Noroeste 9 Norte 0 -- -- 100
2019-06-20 16:00:00 9.6 4 Noroeste 9 Norte 0 -- -- 100
2019-06-20 15:00:00 9.2 5 Noroeste 18 Noroeste 0 -- -- 100
2019-06-20 14:00:00 10.2 13 Nordeste 23 Sudeste 0 -- -- 100
2019-06-20 13:00:00 10.6 4 Sur 13 Noroeste 0 -- -- 100
2019-06-20 12:00:00 10.3 6 Noroeste 12 Este 0 -- -- 99
2019-06-20 11:00:00 10.2 0 Calma 8 Noroeste 0 -- -- 100
2019-06-20 10:00:00 9.3 3 Noroeste 6 Noroeste 0 -- -- 100
2019-06-20 09:00:00 8.8 2 Noroeste 9 Noroeste 0 -- -- 100
2019-06-20 08:00:00 8.5 3 Sudeste 5 Sudeste 0 -- -- 100
2019-06-20 07:00:00 8.1 0 Calma 7 Sur 0 -- -- 100
2019-06-20 06:00:00 8.4 2 Noroeste 10 Este 0 -- -- 97
2019-06-20 05:00:00 7.9 0 Calma 7 Este 0 -- -- 100
2019-06-20 04:00:00 8.4 3 Este 11 Sur 0 -- -- 99
2019-06-20 03:00:00 8.5 6 Sudeste 9 Sur 0 -- -- 99
2019-06-20 02:00:00 9.1 3 Sur 10 Noroeste 0 -- -- 98
2019-06-20 01:00:00 10.1 5 Norte 14 Este 0 -- -- 97
2019-06-20 00:00:00 10.4 4 Este 12 Noroeste 0 -- -- 98
2019-06-19 23:00:00 12.6 3 Oeste 8 Noroeste 0 -- -- 73
2019-06-19 22:00:00 13.9 8 Noroeste 19 Norte 0 -- -- 66
2019-06-19 21:00:00 15.9 12 Noroeste 28 Noroeste 0 -- -- 60
2019-06-19 20:00:00 15.9 8 Noroeste 27 Noroeste 0 -- -- 63
2019-06-19 19:00:00 16.6 17 Norte 30 Noroeste 0 -- -- 55
2019-06-19 18:00:00 16 14 Sudoeste 26 Sur 0 -- -- 57
2019-06-19 17:00:00 15.3 9 Sudeste 26 Sudeste 0 -- -- 59
2019-06-19 16:00:00 15.1 4 Nordeste 24 Noroeste 0 -- -- 62
2019-06-19 15:00:00 14.2 10 Norte 26 Norte 0 -- -- 65
2019-06-19 14:00:00 13.7 13 Nordeste 34 Sudeste 0 -- -- 64
2019-06-19 13:00:00 12.1 11 Nordeste -- -- -- -- -- 73
2019-06-19 12:00:00 -- -- -- -- -- -- -- -- --
2019-06-19 11:00:00 -- -- -- -- -- -- -- -- --
2019-06-19 10:00:00 -- -- -- -- -- -- -- -- --
2019-06-19 09:00:00 -- -- -- -- -- -- -- -- --
2019-06-19 08:00:00 -- -- -- -- -- -- -- -- --
2019-06-19 07:00:00 -- -- -- -- -- -- -- -- --
2019-06-19 06:00:00 -- -- -- -- -- -- -- -- --
2019-06-19 05:00:00 -- -- -- -- -- -- -- -- --
2019-06-19 04:00:00 -- -- -- -- -- -- -- -- --
2019-06-19 03:00:00 -- -- -- -- -- -- -- -- --
2019-06-19 02:00:00 -- -- -- -- -- -- -- -- --
2019-06-19 01:00:00 -- -- -- -- -- -- -- -- --
2019-06-19 00:00:00 -- -- -- -- -- -- -- -- --
2019-06-18 23:00:00 -- -- -- -- -- -- -- -- --
2019-06-18 22:00:00 -- -- -- -- -- -- -- -- --
2019-06-18 21:00:00 -- -- -- -- -- -- -- -- --
2019-06-18 20:00:00 -- -- -- -- -- -- -- -- --
2019-06-18 19:00:00 21 12 Sudeste 40 Sur 0 -- -- 21
2019-06-18 18:00:00 21.8 13 Sudeste 58 Sur 0 -- -- 23
2019-06-18 17:00:00 21.4 19 Sudeste 52 Sur 0 -- -- 19
2019-06-18 16:00:00 20.8 28 Sudeste 52 Sudeste 0 -- -- 23
2019-06-18 15:00:00 20.7 27 Sudeste 55 Sudeste 0 -- -- 23
2019-06-18 14:00:00 20.6 13 Sudeste 45 Sur 0 -- -- 20
2019-06-18 13:00:00 20 11 Noroeste 41 Norte 0 -- -- 28
2019-06-18 12:00:00 18.8 11 Sur 57 Sur 0 -- -- 28
2019-06-18 11:00:00 17.4 16 Sudeste 51 Sur 0 -- -- 31
2019-06-18 10:00:00 16.4 13 Sudeste 38 Este 0 -- -- 36
2019-06-18 09:00:00 15.9 15 Este 37 Sudeste 0 -- -- 35
2019-06-18 08:00:00 16.2 9 Sudeste 32 Sudoeste 0 -- -- 33
2019-06-18 07:00:00 16.8 12 Sudeste 34 Sur 0 -- -- 32
2019-06-18 06:00:00 17.1 13 Sudeste 35 Este 0 -- -- 32
2019-06-18 05:00:00 16.2 22 Este 39 Sudeste 0 -- -- 33
2019-06-18 04:00:00 17.2 21 Sudeste 35 Sudeste 0 -- -- 31
2019-06-18 03:00:00 16.4 10 Nordeste 21 Nordeste 0 -- -- 33
2019-06-18 02:00:00 15.5 10 Sudeste 14 Sudeste 0 -- -- 38
2019-06-18 01:00:00 16.1 4 Sudoeste 12 Sur 0 -- -- 40
2019-06-18 00:00:00 15.9 3 Sudeste 13 Noroeste 0 -- -- 46
2019-06-17 23:00:00 17.7 3 Este 35 Sudeste 0 -- -- 33
2019-06-17 22:00:00 19.2 14 Sudeste 24 Sudeste 0 -- -- 29
2019-06-17 21:00:00 19.6 14 Sudeste 24 Sudeste 0 -- -- 27
2019-06-17 20:00:00 19 10 Este 19 Este 0 -- -- 42
2019-06-17 19:00:00 20.9 5 Norte 32 Noroeste 0 -- -- 31
2019-06-17 18:00:00 22.3 10 Norte 29 Sudeste 0 -- -- 28
2019-06-17 17:00:00 21.8 13 Noroeste 32 Norte 0 -- -- 27
2019-06-17 16:00:00 21 13 Sur 44 Sur 0 -- -- 25
2019-06-17 15:00:00 20.9 10 Nordeste 32 Sudeste 0 -- -- 26
2019-06-17 14:00:00 19.7 10 Noroeste 31 Noroeste 0 -- -- 30
2019-06-17 13:00:00 19 8 Nordeste 33 Noroeste 0 -- -- 30
2019-06-17 12:00:00 18.8 8 Sudeste 25 Oeste 0 -- -- 31
2019-06-17 11:00:00 17.9 11 Norte 18 Norte 0 -- -- 30
2019-06-17 10:00:00 18.3 5 Sudeste 13 Sudeste 0 -- -- 31
2019-06-17 09:00:00 14.6 6 Sudeste 16 Sudeste 0 -- -- 37
2019-06-17 08:00:00 12.7 6 Nordeste 15 Sudoeste 0 -- -- 41
2019-06-17 07:00:00 11.8 10 Sur 16 Sur 0 -- -- 45
2019-06-17 06:00:00 11.7 9 Sur 15 Sur 0 -- -- 48
2019-06-17 05:00:00 13.1 6 Sudeste 13 Sur 0 -- -- 43
2019-06-17 04:00:00 12.3 10 Sur 16 Sur 0 -- -- 52
2019-06-17 03:00:00 13.3 9 Sur 15 Sudoeste 0 -- -- 45
2019-06-17 02:00:00 13.3 13 Sur 26 Sudeste 0 -- -- 46
2019-06-17 01:00:00 13.8 21 Sudeste 32 Sur 0 -- -- 53
2019-06-17 00:00:00 14.5 25 Sudeste 30 Sudeste 0 -- -- 51
2019-06-16 23:00:00 14.5 18 Sudeste 27 Este 0 -- -- 52
2019-06-16 22:00:00 14.6 20 Sudeste 24 Sudeste 0 -- -- 55
2019-06-16 21:00:00 15.3 9 Este 23 Este 0 -- -- 54
2019-06-16 20:00:00 16.6 13 Este 24 Este 0 -- -- 49
2019-06-16 19:00:00 17.2 13 Este 22 Este 0 -- -- 49
2019-06-16 18:00:00 17.5 10 Sudeste 19 Este 0 -- -- 49
2019-06-16 17:00:00 17.5 10 Noroeste 21 Norte 0 -- -- 55
2019-06-16 16:00:00 17.7 10 Noroeste 19 Noroeste 0 -- -- 57
2019-06-16 15:00:00 16.8 9 Noroeste 17 Noroeste 0 -- -- 60
2019-06-16 14:00:00 16.1 11 Noroeste 17 Noroeste 0 -- -- 64
2019-06-16 13:00:00 15.5 6 Noroeste 16 Noroeste 0 -- -- 61
2019-06-16 12:00:00 15.5 7 Noroeste 19 Norte 0 -- -- 57
2019-06-16 11:00:00 14.6 6 Norte 16 Norte 0 -- -- 45
2019-06-16 10:00:00 14.4 4 Este 17 Sudeste 0 -- -- 48
2019-06-16 09:00:00 11 4 Este 19 Sur 0 -- -- 53
2019-06-16 08:00:00 10.4 8 Sur 21 Sur 0 -- -- 57
2019-06-16 07:00:00 9.4 17 Sur 21 Sur 0 -- -- 57
2019-06-16 06:00:00 9.4 11 Sudeste 15 Sudeste 0 -- -- 55
2019-06-16 05:00:00 8.5 9 Este 16 Sur 0 -- -- 60
2019-06-16 04:00:00 9.3 6 Sudeste 12 Sur 0 -- -- 60
2019-06-16 03:00:00 8.7 10 Este 14 Este 0 -- -- 60
2019-06-16 02:00:00 9.4 6 Sudeste 12 Sur 0 -- -- 60
2019-06-16 01:00:00 7.5 5 Sur 15 Este 0 -- -- 77
2019-06-16 00:00:00 6.6 6 Este 19 Este 0 -- -- 96
2019-06-15 23:00:00 8 7 Sudeste 14 Este 0 -- -- 84
2019-06-15 22:00:00 8.1 4 Noroeste 12 Noroeste 0 -- -- 92
2019-06-15 21:00:00 10.6 9 Este 20 Sudeste 0 -- -- 71
2019-06-15 20:00:00 12.9 8 Noroeste 17 Noroeste 0 -- -- 60
2019-06-15 19:00:00 13.1 8 Noroeste 18 Noroeste 0 -- -- 59
2019-06-15 18:00:00 13.4 12 Noroeste 20 Noroeste 0 -- -- 58
2019-06-15 17:00:00 12.3 7 Oeste 15 Noroeste 0 -- -- 63
2019-06-15 16:00:00 11.3 7 Noroeste 16 Oeste 0 -- -- 67
2019-06-15 15:00:00 10.6 7 Noroeste 21 Norte 0 -- -- 68
2019-06-15 14:00:00 10.3 8 Noroeste 17 Noroeste 0 -- -- 69
2019-06-15 13:00:00 8.8 7 Noroeste 14 Noroeste 0 -- -- 75
2019-06-15 12:00:00 6.9 6 Noroeste 13 Noroeste 0 -- -- 87
2019-06-15 11:00:00 6.5 6 Noroeste 12 Noroeste 0 -- -- 93
2019-06-15 10:00:00 6 8 Noroeste 22 Nordeste 0 -- -- 98
2019-06-15 09:00:00 5.4 9 Norte 19 Norte 0 -- -- 97
2019-06-15 08:00:00 4.6 3 Nordeste 9 Norte 0 -- -- 100
2019-06-15 07:00:00 4.9 0 Calma 5 Noroeste 0 -- -- 100
2019-06-15 06:00:00 5.1 2 Noroeste 7 Noroeste 0 -- -- 100
2019-06-15 05:00:00 5.4 4 Noroeste 8 Norte 0 -- -- 100
2019-06-15 04:00:00 5.5 3 Nordeste 9 Noroeste 0 -- -- 100
2019-06-15 03:00:00 5.6 4 Noroeste 8 Noroeste 0 -- -- 100
2019-06-15 02:00:00 5.3 0 Calma 9 Oeste 0 -- -- 100
2019-06-15 01:00:00 6.1 3 Oeste 8 Sur 0 -- -- 100
2019-06-15 00:00:00 6.2 4 Noroeste 12 Norte 0 -- -- 100
2019-06-14 23:00:00 7.1 6 Noroeste 12 Noroeste 0 -- -- 99
2019-06-14 22:00:00 8 3 Norte 12 Noroeste 0 -- -- 99
2019-06-14 21:00:00 11.4 4 Oeste 14 Noroeste 0 -- -- 86
2019-06-14 20:00:00 13.1 6 Noroeste 19 Noroeste 0 -- -- 80
2019-06-14 19:00:00 14.2 8 Noroeste 19 Noroeste 0 -- -- 73
2019-06-14 18:00:00 15 12 Noroeste 20 Norte 0 -- -- 61
2019-06-14 17:00:00 13.7 12 Este 21 Este 0 -- -- 68
2019-06-14 16:00:00 14.7 9 Noroeste 18 Noroeste 0 -- -- 67
2019-06-14 15:00:00 14.3 10 Noroeste 33 Sur 0 -- -- 65
2019-06-14 14:00:00 13.9 14 Noroeste 21 Noroeste 0 -- -- 70
2019-06-14 13:00:00 13.8 8 Noroeste 23 Sudeste 0 -- -- 50
2019-06-14 12:00:00 14.3 9 Norte 26 Noroeste 0 -- -- 47
2019-06-14 11:00:00 14.5 9 Sudeste 40 Sudeste 0 -- -- 43
2019-06-14 10:00:00 14.1 12 Sudeste 41 Sur 0 -- -- 41
2019-06-14 09:00:00 13 19 Sudeste 38 Sudeste 0 -- -- 41
2019-06-14 08:00:00 12.6 18 Sudeste 30 Sudeste 0 -- -- 34
2019-06-14 07:00:00 12.5 13 Sudeste 40 Sudeste 0 -- -- 30
2019-06-14 06:00:00 13.2 26 Sudeste 44 Sur 0 -- -- 26
2019-06-14 05:00:00 13.5 20 Sur 40 Sur 0 -- -- 27
2019-06-14 04:00:00 12.9 16 Sudeste 28 Sudeste 0 -- -- 31
2019-06-14 03:00:00 13 14 Sudeste 24 Sur 0 -- -- 29
2019-06-14 02:00:00 6.4 3 Norte 31 Este 0 -- -- 96
2019-06-14 01:00:00 9.6 21 Este 28 Este 0 -- -- 82
2019-06-14 00:00:00 6.5 6 Sudeste 13 Sudeste 0 -- -- 100
2019-06-13 23:00:00 7.5 3 Noroeste 9 Noroeste 0 -- -- 100
2019-06-13 22:00:00 9.4 5 Sudoeste 14 Sudeste 0 -- -- 92
2019-06-13 21:00:00 11.4 2 Oeste 16 Noroeste 0 -- -- 87
2019-06-13 20:00:00 16.9 8 Noroeste 29 Sudoeste 0 -- -- 39
2019-06-13 19:00:00 17.6 13 Sudeste 36 Sudeste 0 -- -- 30
2019-06-13 18:00:00 16.9 10 Sudeste 39 Sudeste 0 -- -- 34
2019-06-13 17:00:00 16.3 18 Sudeste 49 Sudeste 0 -- -- 36
2019-06-13 16:00:00 16.1 17 Sur 42 Sur 0 -- -- 35
2019-06-13 15:00:00 14.8 10 Sudeste 33 Sudeste 0 -- -- 39
2019-06-13 14:00:00 14.3 12 Sudeste 37 Sudoeste 0 -- -- 46
2019-06-13 13:00:00 13.2 21 Sudeste 49 Sur 0 -- -- 48
2019-06-13 12:00:00 12.2 10 Sur 33 Este 0 -- -- 58
2019-06-13 11:00:00 10.7 13 Este 32 Este 0 -- -- 62
2019-06-13 10:00:00 9.4 14 Este 42 Este 0 -- -- 70
2019-06-13 09:00:00 8.5 20 Este 49 Este 0 -- -- 73
2019-06-13 08:00:00 9.4 27 Sudeste 48 Sudeste 0 -- -- 60
2019-06-13 07:00:00 9.1 22 Sudeste 46 Sur 0 -- -- 60
2019-06-13 06:00:00 9.8 23 Sur 42 Sur 0 -- -- 53
2019-06-13 05:00:00 9 21 Sudeste 45 Este 0 -- -- 56
2019-06-13 04:00:00 7.9 25 Este 44 Este 0 -- -- 61
2019-06-13 03:00:00 8.5 22 Este 36 Sudeste 0 -- -- 55
2019-06-13 02:00:00 7.8 28 Sudeste 43 Sudeste 0 -- -- 64
2019-06-13 01:00:00 8.2 22 Sudeste 32 Sudeste 0 -- -- 62
2019-06-13 00:00:00 6.5 17 Sudeste 25 Sudeste 0 -- -- 79
2019-06-12 23:00:00 7.8 12 Sudeste 18 Sudeste 0 -- -- 72
2019-06-12 22:00:00 6.4 4 Norte 19 Este 0 -- -- 92
2019-06-12 21:00:00 10.2 4 Oeste 18 Noroeste 0 -- -- 63
2019-06-12 20:00:00 11.9 13 Noroeste 31 Noroeste 0 -- -- 44
2019-06-12 19:00:00 11.8 17 Norte 39 Norte 0 -- -- 34
2019-06-12 18:00:00 11.2 8 Sudeste 35 Noroeste 0 -- -- 33
2019-06-12 17:00:00 11.8 8 Nordeste 44 Noroeste 0 -- -- 40
2019-06-12 16:00:00 10.5 20 Norte 51 Noroeste 0 -- -- 37
2019-06-12 15:00:00 9.8 16 Norte 41 Noroeste 0 -- -- 40
2019-06-12 14:00:00 9 15 Norte 30 Norte 0 -- -- 43
2019-06-12 13:00:00 7.8 10 Sur 32 Oeste 0 -- -- 40
2019-06-12 12:00:00 6.6 13 Nordeste 30 Noroeste 0 -- -- 43
2019-06-12 11:00:00 5.9 8 Nordeste 35 Sur 0 -- -- 52
2019-06-12 10:00:00 4.5 15 Sudeste 26 Nordeste 0 -- -- 58
2019-06-12 09:00:00 3.5 14 Nordeste 31 Norte 0 -- -- 62
2019-06-12 08:00:00 2.4 14 Norte 35 Norte 0 -- -- 67
2019-06-12 07:00:00 1.3 6 Este 21 Nordeste 0 -- -- 86
2019-06-12 06:00:00 1.8 7 Norte 34 Norte 0 -- -- 87
2019-06-12 05:00:00 2.5 10 Norte 26 Norte 0 -- -- 80
2019-06-12 04:00:00 0.5 4 Sudeste 7 Nordeste 0 -- -- 92
2019-06-12 03:00:00 0.4 3 Sudeste 12 Oeste 0 -- -- 91
2019-06-12 02:00:00 1.4 4 Norte 13 Oeste 0 -- -- 87
2019-06-12 01:00:00 1.1 2 Nordeste 10 Noroeste 0 -- -- 92
2019-06-12 00:00:00 1 3 Sudeste 10 Sudeste 0 -- -- 89
2019-06-11 23:00:00 1.3 7 Sudeste 11 Sudeste 0 -- -- 90
2019-06-11 22:00:00 2.2 8 Noroeste 15 Noroeste 0 -- -- 96
2019-06-11 21:00:00 3.2 10 Noroeste 22 Noroeste 0 -- -- 92
2019-06-11 20:00:00 3.8 10 Noroeste 22 Noroeste 0 -- -- 90
2019-06-11 19:00:00 2.9 9 Noroeste 36 Noroeste 0 -- -- 94
2019-06-11 18:00:00 4.9 16 Noroeste 31 Noroeste 0 -- -- 81
2019-06-11 17:00:00 3.4 13 Noroeste 30 Noroeste 0 -- -- 96
2019-06-11 16:00:00 3.8 12 Noroeste 28 Noroeste 0 -- -- 91
2019-06-11 15:00:00 3 13 Noroeste 28 Noroeste 0.2 -- -- 100
2019-06-11 14:00:00 2.4 14 Noroeste 31 Noroeste 0 -- -- 100
2019-06-11 13:00:00 1.7 16 Noroeste 30 Noroeste 0 -- -- 100
2019-06-11 12:00:00 1.1 12 Noroeste 29 Noroeste 0.6 -- -- 100
2019-06-11 11:00:00 1.5 13 Noroeste 28 Noroeste 0.2 -- -- 100
2019-06-11 10:00:00 1.4 11 Noroeste 21 Noroeste 0 -- -- 100
2019-06-11 09:00:00 1.4 9 Noroeste 19 Noroeste 0 -- -- 100
2019-06-11 08:00:00 1.4 9 Noroeste 14 Noroeste 0.2 -- -- 100
2019-06-11 07:00:00 1.2 4 Noroeste 7 Noroeste 0.4 -- -- 100
2019-06-11 06:00:00 0.9 3 Sudeste 6 Sudeste 0.4 -- -- 100
2019-06-11 05:00:00 0.9 3 Sur 6 Sudoeste 1.6 -- -- 100
2019-06-11 04:00:00 0.7 4 Noroeste 8 Oeste 2.4 -- -- 100
2019-06-11 03:00:00 0.8 0 Calma 10 Este 1 -- -- 100
2019-06-11 02:00:00 0.9 7 Este 23 Este 0.4 -- -- 100
2019-06-11 01:00:00 2.2 7 Este 17 Este 0 -- -- 100
2019-06-11 00:00:00 2.5 9 Este 19 Este 0 -- -- 100
2019-06-10 23:00:00 2.8 13 Este 21 Este 0.2 -- -- 100
2019-06-10 22:00:00 3.5 9 Este 18 Este 0 -- -- 100
2019-06-10 21:00:00 4.3 4 Norte 14 Nordeste 0 -- -- 99
2019-06-10 20:00:00 5.8 3 Este 15 Noroeste 0 -- -- 90
2019-06-10 19:00:00 6.4 3 Noroeste 8 Noroeste 0 -- -- 99
2019-06-10 18:00:00 5.5 3 Noroeste 9 Oeste 0 -- -- 98
2019-06-10 17:00:00 4.5 3 Noroeste 10 Noroeste 0 -- -- 100
2019-06-10 16:00:00 3.7 6 Noroeste 10 Noroeste 0 -- -- 100
2019-06-10 15:00:00 3.5 4 Noroeste 10 Noroeste 0 -- -- 100
2019-06-10 14:00:00 3.6 6 Noroeste 10 Noroeste 0 -- -- 100
2019-06-10 13:00:00 3.8 5 Noroeste 11 Noroeste 0 -- -- 100
2019-06-10 12:00:00 3 5 Noroeste 9 Noroeste 0 -- -- 100
2019-06-10 11:00:00 2.6 4 Noroeste 11 Noroeste 0 -- -- 100
2019-06-10 10:00:00 2.6 5 Noroeste 9 Norte 0 -- -- 100
2019-06-10 09:00:00 2.4 4 Noroeste 10 Noroeste 0 -- -- 100
2019-06-10 08:00:00 2.7 5 Noroeste 10 Norte 0 -- -- 100
2019-06-10 07:00:00 2.9 2 Noroeste 9 Noroeste 0.2 -- -- 100
2019-06-10 06:00:00 3.4 4 Noroeste 11 Norte 0 -- -- 100
2019-06-10 05:00:00 3.7 0 Calma 12 Noroeste 0.2 -- -- 100
2019-06-10 04:00:00 4 0 Calma 8 Noroeste 0 -- -- 100
2019-06-10 03:00:00 3.9 5 Noroeste 12 Noroeste 0.2 -- -- 100
2019-06-10 02:00:00 3.9 4 Noroeste 11 Noroeste 0.2 -- -- 100
2019-06-10 01:00:00 4.1 8 Noroeste 14 Noroeste 0.2 -- -- 100
2019-06-10 00:00:00 4.3 9 Noroeste 15 Oeste 0.4 -- -- 100
2019-06-09 23:00:00 5.1 5 Noroeste 20 Noroeste 0.6 -- -- 100
2019-06-09 22:00:00 5.6 8 Noroeste 15 Noroeste 0.4 -- -- 100
2019-06-09 21:00:00 6.4 6 Noroeste 18 Noroeste 0 -- -- 100
2019-06-09 20:00:00 6.8 10 Noroeste 20 Noroeste 0 -- -- 100
2019-06-09 19:00:00 7.8 10 Noroeste 21 Noroeste 0 -- -- 99
2019-06-09 18:00:00 9.7 14 Noroeste 25 Noroeste 0 -- -- 93
2019-06-09 17:00:00 12.8 10 Noroeste 21 Noroeste 0 -- -- 76
2019-06-09 16:00:00 12.9 3 Noroeste 19 Noroeste 0 -- -- 74
2019-06-09 15:00:00 12.9 11 Noroeste 21 Noroeste 0 -- -- 77
2019-06-09 14:00:00 12.7 9 Noroeste 19 Noroeste 0 -- -- 74
2019-06-09 13:00:00 12.8 10 Noroeste 27 Norte 0 -- -- 72
2019-06-09 12:00:00 13.2 18 Norte 37 Noroeste 0 -- -- 46
2019-06-09 11:00:00 12.9 12 Norte 29 Sur 0 -- -- 44
2019-06-09 10:00:00 13 4 Oeste 22 Este 0 -- -- 51
2019-06-09 09:00:00 11.7 9 Sudeste 25 Sur 0 -- -- 51
2019-06-09 08:00:00 10.8 10 Este 23 Sudeste 0 -- -- 54
2019-06-09 07:00:00 11 11 Sudeste 41 Sudeste 0 -- -- 57
2019-06-09 06:00:00 11.4 19 Sudeste 40 Sur 0 -- -- 55
2019-06-09 05:00:00 11.7 18 Sudeste 36 Sudeste 0 -- -- 63
2019-06-09 04:00:00 11.8 18 Sudeste 33 Sur 0 -- -- 67
2019-06-09 03:00:00 11.8 8 Nordeste 38 Sudeste 0 -- -- 66
2019-06-09 02:00:00 11.1 21 Sudeste 34 Sur 0 -- -- 73
2019-06-09 01:00:00 11.4 21 Sudeste 33 Sudeste 0 -- -- 73
2019-06-09 00:00:00 10.4 24 Sudeste 29 Este 0 -- -- 78
2019-06-08 23:00:00 11.6 20 Sudeste 27 Este 0 -- -- 73
2019-06-08 22:00:00 11.2 23 Este 28 Este 0 -- -- 70
2019-06-08 21:00:00 11.1 7 Sudeste 18 Este 0 -- -- 67
2019-06-08 20:00:00 12 14 Sudeste 21 Sudeste 0 -- -- 63
2019-06-08 19:00:00 12.9 13 Sudeste 31 Sudeste 0 -- -- 62
2019-06-08 18:00:00 13.4 10 Este 26 Este 0 -- -- 59
2019-06-08 17:00:00 14.3 8 Norte 41 Este 0 -- -- 60
2019-06-08 16:00:00 13.3 10 Este 23 Sudeste 0 -- -- 63
2019-06-08 15:00:00 12.3 6 Noroeste 16 Noroeste 0 -- -- 70
2019-06-08 14:00:00 11.1 8 Noroeste 15 Noroeste 0 -- -- 72
2019-06-08 13:00:00 10 7 Noroeste 17 Noroeste 0 -- -- 78
2019-06-08 12:00:00 9.6 6 Norte 30 Sudeste 0 -- -- 76
2019-06-08 11:00:00 9.8 15 Sudeste 34 Sudeste 0 -- -- 53
2019-06-08 10:00:00 8.3 21 Sudeste 33 Sudeste 0 -- -- 52
2019-06-08 09:00:00 7 16 Sudeste 36 Sur 0 -- -- 55
2019-06-08 08:00:00 5.4 24 Sudeste 28 Sudeste 0 -- -- 59
2019-06-08 07:00:00 5.3 13 Sudeste 22 Sudeste 0 -- -- 58
2019-06-08 06:00:00 4.6 15 Sudeste 21 Sur 0 -- -- 60
2019-06-08 05:00:00 5.3 14 Sur 22 Sur 0 -- -- 56
2019-06-08 04:00:00 4.2 8 Sudeste 13 Sudeste 0 -- -- 66
2019-06-08 03:00:00 4.5 5 Sudeste 11 Este 0 -- -- 63
2019-06-08 02:00:00 5.4 6 Nordeste 18 Norte 0 -- -- 59
2019-06-08 01:00:00 5 5 Sudeste 23 Sur 0 -- -- 65
2019-06-08 00:00:00 6.8 15 Sudeste 25 Sur 0 -- -- 55
2019-06-07 23:00:00 7 8 Sudeste 25 Sur 0 -- -- 52
2019-06-07 22:00:00 6.7 5 Noroeste 27 Norte 0 -- -- 54
2019-06-07 21:00:00 8.4 15 Norte 29 Noroeste 0 -- -- 47
2019-06-07 20:00:00 8.9 15 Norte 37 Noroeste 0 -- -- 47
2019-06-07 19:00:00 9.3 15 Noroeste 46 Noroeste 0 -- -- 49
2019-06-07 18:00:00 9.1 22 Norte 45 Norte 0 -- -- 44
2019-06-07 17:00:00 9.2 16 Noroeste 46 Noroeste 0 -- -- 48
2019-06-07 16:00:00 8.1 19 Norte 46 Norte 0 -- -- 52
2019-06-07 15:00:00 7.7 21 Norte 50 Noroeste 0 -- -- 53
2019-06-07 14:00:00 6.9 20 Norte 40 Sur 0 -- -- 59
2019-06-07 13:00:00 5.5 12 Norte 47 Norte 0 -- -- 68
2019-06-07 12:00:00 4.7 11 Nordeste 41 Sur 0 -- -- 78
2019-06-07 11:00:00 3 17 Este 53 Sudeste 0 -- -- 80
2019-06-07 10:00:00 2.4 17 Nordeste 56 Norte 0 -- -- 83
2019-06-07 09:00:00 1.3 30 Norte 60 Norte 0 -- -- 92
2019-06-07 08:00:00 1.2 23 Norte 77 Norte 0 -- -- 93
2019-06-07 07:00:00 1.3 32 Norte 81 Noroeste 0 -- -- 91
2019-06-07 06:00:00 1.6 34 Norte 76 Norte 0.2 -- -- 89
2019-06-07 05:00:00 1.9 28 Norte 74 Norte 0 -- -- 85
2019-06-07 04:00:00 1.7 18 Nordeste 46 Sur 1 -- -- 88
2019-06-07 03:00:00 2.6 22 Sudeste 59 Sudeste 1.4 -- -- 90
2019-06-07 02:00:00 6.4 22 Sudeste 71 Sudeste 2 -- -- 88
2019-06-07 01:00:00 7 40 Sudeste 85 Sudeste 2 -- -- 79
2019-06-07 00:00:00 10.6 31 Sur 66 Sur 0 -- -- 50
2019-06-06 23:00:00 11.2 35 Sur 66 Sudeste 0 -- -- 47
2019-06-06 22:00:00 12 34 Sur 73 Sur 0 -- -- 42
2019-06-06 21:00:00 12.5 32 Sudeste 63 Sudeste 0 -- -- 40
2019-06-06 20:00:00 13.3 20 Sur 68 Sur 0 -- -- 37
2019-06-06 19:00:00 13.6 25 Sudeste 57 Sur 0 -- -- 36
2019-06-06 18:00:00 13.1 30 Sudeste 66 Sur 0 -- -- 38
2019-06-06 17:00:00 13.4 15 Sudeste 44 Sudoeste 0 -- -- 38
2019-06-06 16:00:00 13.2 17 Sudeste 45 Sur 0 -- -- 38
2019-06-06 15:00:00 12.3 17 Sur 41 Sur 0 -- -- 42
2019-06-06 14:00:00 10.2 16 Este 41 Sur 0 -- -- 54
2019-06-06 13:00:00 9.5 10 Nordeste 38 Sudoeste 0 -- -- 55
2019-06-06 12:00:00 7.9 14 Sur 42 Sur 0 -- -- 64
2019-06-06 11:00:00 6.1 9 Sur 33 Sudeste 0 -- -- 73
2019-06-06 10:00:00 5.2 10 Este 38 Sudeste 0 -- -- 79
2019-06-06 09:00:00 4.6 14 Sudeste 33 Sudeste 0 -- -- 82
2019-06-06 08:00:00 4.3 5 Sudeste 15 Este 0 -- -- 79
2019-06-06 07:00:00 3.7 4 Este 15 Sudeste 0 -- -- 79
2019-06-06 06:00:00 3.9 4 Este 15 Sur 0 -- -- 84
2019-06-06 05:00:00 3.6 5 Norte 16 Norte 0 -- -- 87
2019-06-06 04:00:00 4.2 9 Norte 20 Norte 0 -- -- 87
2019-06-06 03:00:00 2.6 5 Sudeste 15 Noroeste 0 -- -- 100
2019-06-06 02:00:00 2.5 3 Sur 12 Este 0 -- -- 100
2019-06-06 01:00:00 2.6 3 Noroeste 8 Noroeste 0 -- -- 100
2019-06-06 00:00:00 3.4 4 Noroeste 9 Noroeste 0 -- -- 100
2019-06-05 23:00:00 3.3 3 Norte 8 Sudoeste 0 -- -- 100
2019-06-05 22:00:00 3.7 6 Noroeste 18 Norte 0 -- -- 100
2019-06-05 21:00:00 5 7 Nordeste 17 Noroeste 0 -- -- 97
2019-06-05 20:00:00 4.8 9 Noroeste 16 Noroeste 0 -- -- 100
2019-06-05 19:00:00 5.1 5 Noroeste 18 Norte 0 -- -- 99
2019-06-05 18:00:00 5.2 6 Sur 12 Noroeste 0 -- -- 90
2019-06-05 17:00:00 4.8 9 Noroeste 22 Noroeste 0.4 -- -- 98
2019-06-05 16:00:00 4 4 Noroeste 21 Noroeste 1.2 -- -- 100
2019-06-05 15:00:00 3.8 5 Oeste 24 Noroeste 1 -- -- 99
2019-06-05 14:00:00 3.9 10 Noroeste 22 Noroeste 0 -- -- 100
2019-06-05 13:00:00 3.1 9 Noroeste 20 Noroeste 0 -- -- 100
2019-06-05 12:00:00 2.3 11 Noroeste 20 Norte 0.4 -- -- 100
2019-06-05 11:00:00 0.6 9 Noroeste 28 Noroeste 1.6 -- -- 100
2019-06-05 10:00:00 1.7 13 Noroeste 27 Noroeste 1.2 -- -- 100
2019-06-05 09:00:00 2.1 15 Noroeste 26 Noroeste 2 -- -- 100
2019-06-05 08:00:00 2.8 10 Noroeste 23 Oeste 2.6 -- -- 100
2019-06-05 07:00:00 3.2 5 Noroeste 17 Noroeste 2 -- -- 100
2019-06-05 06:00:00 3.7 8 Noroeste 15 Noroeste 1 -- -- 100
2019-06-05 05:00:00 3.7 7 Noroeste 12 Noroeste 0.2 -- -- 100
2019-06-05 04:00:00 4.1 5 Noroeste 11 Noroeste 0.4 -- -- 100
2019-06-05 03:00:00 4.7 6 Noroeste 13 Noroeste 0.2 -- -- 100
2019-06-05 02:00:00 5 2 Norte 9 Noroeste 0 -- -- 100
2019-06-05 01:00:00 5.4 4 Noroeste 13 Noroeste 0 -- -- 100
2019-06-05 00:00:00 6.2 7 Noroeste 11 Oeste 0 -- -- 100
2019-06-04 23:00:00 7.7 4 Noroeste 10 Noroeste 0 -- -- 100
2019-06-04 22:00:00 8.5 5 Noroeste 10 Noroeste 0 -- -- 100
2019-06-04 21:00:00 9.4 2 Noroeste 14 Noroeste 0 -- -- 98
2019-06-04 20:00:00 12.8 9 Oeste 33 Este 0 -- -- 72
2019-06-04 19:00:00 16.4 15 Noroeste 35 Oeste 0 -- -- 50
2019-06-04 18:00:00 17.6 21 Noroeste 35 Noroeste 0 -- -- 46
2019-06-04 17:00:00 18.1 21 Noroeste 35 Noroeste 0 -- -- 45
2019-06-04 16:00:00 18.1 17 Norte 48 Sur 0 -- -- 47
2019-06-04 15:00:00 17 15 Sudoeste 40 Sudeste 0 -- -- 47
2019-06-04 14:00:00 16.3 14 Sudeste 37 Norte 0 -- -- 52
2019-06-04 13:00:00 16.8 14 Sudeste 40 Sur 0 -- -- 49
2019-06-04 12:00:00 15.8 17 Sur 52 Sur 0 -- -- 48
2019-06-04 11:00:00 15.4 15 Sudeste 44 Sudeste 0 -- -- 47
2019-06-04 10:00:00 15.4 21 Sudeste 54 Sudeste 0 -- -- 42
2019-06-04 09:00:00 14.7 28 Sudeste 71 Sudeste 0 -- -- 44
2019-06-04 08:00:00 14.1 27 Sudeste 68 Sudeste 0 -- -- 48
2019-06-04 07:00:00 13.5 21 Sudeste 48 Sudeste 0 -- -- 65
2019-06-04 06:00:00 14.4 17 Sudeste 48 Sudeste 0 -- -- 60
2019-06-04 05:00:00 15.2 21 Sudeste 53 Sur 0 -- -- 41
2019-06-04 04:00:00 15.8 18 Sur 45 Sudeste 0 -- -- 43
2019-06-04 03:00:00 16.4 22 Sudeste 47 Sudeste 0 -- -- 38
2019-06-04 02:00:00 16.9 23 Sudeste 47 Sur 0 -- -- 39
2019-06-04 01:00:00 16.4 6 Este 15 Nordeste 0 -- -- 39
2019-06-04 00:00:00 15.6 5 Nordeste 15 Noroeste 0 -- -- 38
2019-06-03 23:00:00 17.8 8 Norte 19 Norte 0 -- -- 30
2019-06-03 22:00:00 17.8 4 Nordeste 31 Norte 0 -- -- 29
2019-06-03 21:00:00 19.8 21 Norte 36 Norte 0 -- -- 22
2019-06-03 20:00:00 21.5 18 Norte 43 Norte 0 -- -- 20
2019-06-03 19:00:00 21.7 17 Norte 48 Norte 0 -- -- 20
2019-06-03 18:00:00 21 33 Norte 59 Norte 0 -- -- 20
2019-06-03 17:00:00 20.7 19 Norte 44 Norte 0 -- -- 22
2019-06-03 16:00:00 20.8 13 Nordeste 55 Noroeste 0 -- -- 23
2019-06-03 15:00:00 20.2 21 Norte 36 Norte 0 -- -- 26
2019-06-03 14:00:00 19.7 14 Norte 37 Noroeste 0 -- -- 29
2019-06-03 13:00:00 19.3 13 Norte 36 Sudeste 0 -- -- 29
2019-06-03 12:00:00 18.5 6 Noroeste 16 Noroeste 0 -- -- 40
2019-06-03 11:00:00 16 5 Noroeste 11 Noroeste 0 -- -- 48
2019-06-03 10:00:00 16 3 Sur 33 Este 0 -- -- 43
2019-06-03 09:00:00 16.9 14 Sudeste 36 Sur 0 -- -- 32
2019-06-03 08:00:00 17.2 22 Sudeste 35 Sur 0 -- -- 31
2019-06-03 07:00:00 16.8 22 Sudeste 33 Sudeste 0 -- -- 33
2019-06-03 06:00:00 17.3 14 Sudeste 26 Sudeste 0 -- -- 33
2019-06-03 05:00:00 16.1 5 Este 27 Sudeste 0 -- -- 36
2019-06-03 04:00:00 16.9 6 Sudeste 12 Sur 0 -- -- 35
2019-06-03 03:00:00 16.5 5 Sudeste 12 Sur 0 -- -- 33
2019-06-03 02:00:00 16.4 5 Sudeste 17 Sur 0 -- -- 29
2019-06-03 01:00:00 15.6 12 Sur 21 Sur 0 -- -- 34
2019-06-03 00:00:00 16.4 17 Sur 21 Sudeste 0 -- -- 41
2019-06-02 23:00:00 16.9 5 Sur 10 Sur 0 -- -- 40
2019-06-02 22:00:00 17.2 4 Sudoeste 9 Sudeste 0 -- -- 39
2019-06-02 21:00:00 19.4 5 Noroeste 13 Oeste 0 -- -- 42
2019-06-02 20:00:00 20 4 Noroeste 18 Noroeste 0 -- -- 38
2019-06-02 19:00:00 20.4 8 Noroeste 38 Norte 0 -- -- 43
2019-06-02 18:00:00 22.2 16 Norte 32 Noroeste 0 -- -- 31
2019-06-02 17:00:00 21.8 18 Norte 45 Noroeste 0 -- -- 32
2019-06-02 16:00:00 21.7 13 Norte 48 Norte 0 -- -- 35
2019-06-02 15:00:00 21.9 12 Este 33 Sudeste 0 -- -- 36
2019-06-02 14:00:00 21.2 8 Noroeste 19 Noroeste 0 -- -- 50
2019-06-02 13:00:00 19.9 14 Noroeste 25 Noroeste 0 -- -- 51
2019-06-02 12:00:00 20.6 13 Norte 26 Norte 0 -- -- 37
2019-06-02 11:00:00 21.3 4 Sur 12 Noroeste 0 -- -- 34
2019-06-02 10:00:00 20.7 4 Norte 15 Norte 0 -- -- 32
2019-06-02 09:00:00 17.7 4 Este 19 Sur 0 -- -- 39
2019-06-02 08:00:00 16.6 16 Sur 26 Sudeste 0 -- -- 41
2019-06-02 07:00:00 15.3 16 Sur 26 Sur 0 -- -- 46
2019-06-02 06:00:00 15.6 17 Sur 35 Sudeste 0 -- -- 44
2019-06-02 05:00:00 16.5 31 Sudeste 38 Sudeste 0 -- -- 44
2019-06-02 04:00:00 16.3 31 Sudeste 36 Sudeste 0 -- -- 45
2019-06-02 03:00:00 17.1 30 Sudeste 36 Sudeste 0 -- -- 43
2019-06-02 02:00:00 17.4 27 Sur 32 Sur 0 -- -- 44
2019-06-02 01:00:00 17.2 27 Sur 30 Sudeste 0 -- -- 50
2019-06-02 00:00:00 17.4 14 Sur 29 Sur 0 -- -- 41
2019-06-01 23:00:00 17.7 21 Sur 26 Sur 0 -- -- 42
2019-06-01 22:00:00 18.6 16 Sudeste 18 Sudeste 0 -- -- 41
2019-06-01 21:00:00 20.2 10 Este 16 Este 0 -- -- 37
2019-06-01 20:00:00 20.6 9 Sudeste 16 Sudeste 0 -- -- 34
2019-06-01 19:00:00 21.5 6 Norte 26 Sudeste 0 -- -- 36
2019-06-01 18:00:00 21.2 8 Sudoeste 26 Noroeste 0 -- -- 37
2019-06-01 17:00:00 21.6 9 Noroeste 27 Norte 0 -- -- 39
2019-06-01 16:00:00 21.2 12 Noroeste 24 Noroeste 0 -- -- 40
2019-06-01 15:00:00 20.9 13 Noroeste 23 Noroeste 0 -- -- 33
2019-06-01 14:00:00 20.6 12 Noroeste 22 Noroeste 0 -- -- 40
2019-06-01 13:00:00 20.2 8 Noroeste 15 Noroeste 0 -- -- 34
2019-06-01 12:00:00 20.1 5 Noroeste 11 Noroeste 0 -- -- 23
2019-06-01 11:00:00 19.6 4 Norte 10 Noroeste 0 -- -- 26
2019-06-01 10:00:00 18.8 5 Nordeste 9 Norte 0 -- -- 33
2019-06-01 09:00:00 14.5 5 Este 14 Este 0 -- -- 49
2019-06-01 08:00:00 13.6 8 Este 14 Este 0 -- -- 50
2019-06-01 07:00:00 14.2 9 Este 15 Sur 0 -- -- 45
2019-06-01 06:00:00 13.6 10 Sudeste 18 Sur 0 -- -- 48
2019-06-01 05:00:00 13.6 10 Sur 15 Sur 0 -- -- 50
2019-06-01 04:00:00 13.4 8 Sur 16 Sur 0 -- -- 53
2019-06-01 03:00:00 14.1 11 Sur 17 Sur 0 -- -- 51
2019-06-01 02:00:00 14.3 10 Sur 17 Sur 0 -- -- 57
2019-06-01 01:00:00 13.9 5 Sudeste 18 Este 0 -- -- 60
2019-06-01 00:00:00 14.7 17 Este 23 Este 0 -- -- 55
2019-05-31 23:00:00 15 17 Este 21 Este 0 -- -- 55
2019-05-31 22:00:00 14.4 15 Este 20 Este 0 -- -- 56
2019-05-31 21:00:00 17.8 9 Este 17 Este 0 -- -- 38
2019-05-31 20:00:00 18.7 10 Este 18 Este 0 -- -- 35
2019-05-31 19:00:00 18.8 12 Este 22 Este 0 -- -- 38
2019-05-31 18:00:00 19.9 6 Este 23 Este 0 -- -- 37
2019-05-31 17:00:00 19.4 8 Este 24 Norte 0 -- -- 46
2019-05-31 16:00:00 19.8 9 Noroeste 22 Noroeste 0 -- -- 52
2019-05-31 15:00:00 18.8 12 Noroeste 22 Noroeste 0 -- -- 56
2019-05-31 14:00:00 18.4 9 Noroeste 17 Noroeste 0 -- -- 58
2019-05-31 13:00:00 17.7 10 Noroeste 18 Noroeste 0 -- -- 61
2019-05-31 12:00:00 17.3 8 Noroeste 13 Noroeste 0 -- -- 48
2019-05-31 11:00:00 16.4 4 Noroeste 16 Sudeste 0 -- -- 47
2019-05-31 10:00:00 15.7 9 Este 17 Este 0 -- -- 50
2019-05-31 09:00:00 13.7 13 Este 20 Este 0 -- -- 50
2019-05-31 08:00:00 12.4 17 Este 21 Este 0 -- -- 52
2019-05-31 07:00:00 11.3 17 Sudeste 21 Este 0 -- -- 59
2019-05-31 06:00:00 11.8 18 Sudeste 26 Sudeste 0 -- -- 54
2019-05-31 05:00:00 11.5 15 Sudeste 18 Sudeste 0 -- -- 56
2019-05-31 04:00:00 11.3 14 Sudeste 17 Sudeste 0 -- -- 64
2019-05-31 03:00:00 11.5 12 Sudeste 18 Sudeste 0 -- -- 64
2019-05-31 02:00:00 11.6 10 Sudeste 17 Sudeste 0 -- -- 65
2019-05-31 01:00:00 11.8 11 Sudeste 16 Este 0 -- -- 64
2019-05-31 00:00:00 12.5 9 Sudeste 16 Este 0 -- -- 60
2019-05-30 23:00:00 11.7 12 Este 17 Este 0 -- -- 69
2019-05-30 22:00:00 12.4 7 Este 13 Norte 0 -- -- 65
2019-05-30 21:00:00 15.4 9 Noroeste 23 Noroeste 0 -- -- 52
2019-05-30 20:00:00 16.6 8 Oeste 28 Noroeste 0 -- -- 48
2019-05-30 19:00:00 17 8 Oeste 31 Noroeste 0 -- -- 45
2019-05-30 18:00:00 17.5 11 Noroeste 27 Noroeste 0 -- -- 37
2019-05-30 17:00:00 17.6 5 Sudoeste 30 Noroeste 0 -- -- 29
2019-05-30 16:00:00 17.5 8 Sur 31 Noroeste 0 -- -- 26
2019-05-30 15:00:00 16.3 13 Sur 27 Sur 0 -- -- 32
2019-05-30 14:00:00 16.6 8 Noroeste 23 Sudeste 0 -- -- 42
2019-05-30 13:00:00 15.1 8 Oeste 17 Sudoeste 0 -- -- 41
2019-05-30 12:00:00 14.1 16 Sur 26 Sudeste 0 -- -- 40
2019-05-30 11:00:00 13.1 15 Sur 24 Sudeste 0 -- -- 49
2019-05-30 10:00:00 11.9 15 Sudeste 27 Sudeste 0 -- -- 54
2019-05-30 09:00:00 9.7 10 Sudeste 17 Sudeste 0 -- -- 66
2019-05-30 08:00:00 8.5 11 Sudeste 17 Sudeste 0 -- -- 67
2019-05-30 07:00:00 7.5 16 Sudeste 20 Sudeste 0 -- -- 77
2019-05-30 06:00:00 6.9 14 Sudeste 18 Sudeste 0 -- -- 84
2019-05-30 05:00:00 7 15 Sudeste 21 Sudeste 0 -- -- 85
2019-05-30 04:00:00 6.6 13 Sudeste 19 Sudeste 0 -- -- 88
2019-05-30 03:00:00 6.1 13 Sudeste 17 Sudeste 0 -- -- 77
2019-05-30 02:00:00 6.6 12 Sudeste 17 Sudeste 0 -- -- 73
2019-05-30 01:00:00 6.5 12 Sudeste 19 Sur 0 -- -- 73
2019-05-30 00:00:00 7.4 12 Sur 20 Sur 0 -- -- 70
2019-05-29 23:00:00 7.6 4 Sudoeste 13 Sudeste 0 -- -- 70
2019-05-29 22:00:00 7.9 4 Norte 15 Sur 0 -- -- 71
2019-05-29 21:00:00 9.4 8 Noroeste 15 Oeste 0 -- -- 72
2019-05-29 20:00:00 9 9 Noroeste 19 Noroeste 0 -- -- 86
2019-05-29 19:00:00 8.8 12 Noroeste 26 Noroeste 0 -- -- 86
2019-05-29 18:00:00 8.3 11 Noroeste 22 Noroeste 0 -- -- 87
2019-05-29 17:00:00 7.3 7 Noroeste 15 Noroeste 0 -- -- 98
2019-05-29 16:00:00 6 9 Noroeste 19 Noroeste 0 -- -- 100
2019-05-29 15:00:00 5 8 Noroeste 23 Oeste 0 -- -- 100
2019-05-29 14:00:00 4.5 7 Noroeste 17 Noroeste 0 -- -- 100
2019-05-29 13:00:00 4 9 Noroeste 25 Oeste 0 -- -- 100
2019-05-29 12:00:00 3.9 10 Noroeste 21 Oeste 0.2 -- -- 100
2019-05-29 11:00:00 3.5 8 Noroeste 16 Noroeste 0.2 -- -- 100
2019-05-29 10:00:00 3.3 8 Noroeste 18 Noroeste 0 -- -- 100
2019-05-29 09:00:00 3 8 Noroeste 20 Noroeste 0 -- -- 100
2019-05-29 08:00:00 2.7 10 Noroeste 24 Noroeste 0 -- -- 100
2019-05-29 07:00:00 2.5 3 Sudoeste 16 Noroeste 0 -- -- 100
2019-05-29 06:00:00 2.8 2 Sudeste 12 Este 0 -- -- 96
2019-05-29 05:00:00 2 2 Noroeste 14 Noroeste 0 -- -- 100
2019-05-29 04:00:00 2.2 4 Oeste 10 Oeste 0 -- -- 98
2019-05-29 03:00:00 1.8 3 Nordeste 21 Noroeste 0 -- -- 99
2019-05-29 02:00:00 1.8 6 Noroeste 17 Noroeste 0 -- -- 100
2019-05-29 01:00:00 2.1 5 Noroeste 16 Noroeste 0 -- -- 100
2019-05-29 00:00:00 2.2 7 Noroeste 18 Noroeste 0 -- -- 100
2019-05-28 23:00:00 2.4 8 Noroeste 14 Norte 0 -- -- 98
2019-05-28 22:00:00 3 6 Nordeste 18 Noroeste 0 -- -- 91
2019-05-28 21:00:00 3.9 8 Norte 24 Noroeste 0 -- -- 90
2019-05-28 20:00:00 4.5 10 Noroeste 26 Noroeste 0 -- -- 92
2019-05-28 19:00:00 4.5 9 Noroeste 24 Noroeste 0 -- -- 92
2019-05-28 18:00:00 4.8 13 Noroeste 22 Norte 0 -- -- 89
2019-05-28 17:00:00 4.7 14 Noroeste 28 Noroeste 0 -- -- 87
2019-05-28 16:00:00 4.7 16 Noroeste 31 Noroeste 0 -- -- 89
2019-05-28 15:00:00 5.7 12 Noroeste 27 Noroeste 0 -- -- 80
2019-05-28 14:00:00 4.2 13 Noroeste 31 Noroeste 0 -- -- 91
2019-05-28 13:00:00 3.4 14 Noroeste 25 Noroeste 0 -- -- 97
2019-05-28 12:00:00 4 8 Oeste 21 Noroeste 0 -- -- 89
2019-05-28 11:00:00 3.6 11 Noroeste 23 Noroeste 0 -- -- 86
2019-05-28 10:00:00 2.1 10 Noroeste 18 Noroeste 0 -- -- 90
2019-05-28 09:00:00 1.7 7 Noroeste 20 Noroeste 0 -- -- 90
2019-05-28 08:00:00 1.3 6 Noroeste 17 Noroeste 0 -- -- 91
2019-05-28 07:00:00 1.3 6 Noroeste 11 Noroeste 0 -- -- 97
2019-05-28 06:00:00 1.3 4 Norte 10 Oeste 0 -- -- 98
2019-05-28 05:00:00 1.7 3 Noroeste 9 Sudeste 0 -- -- 99
2019-05-28 04:00:00 1.4 5 Este 8 Sudeste 0 -- -- 99
2019-05-28 03:00:00 2 5 Este 8 Este 0 -- -- 100
2019-05-28 02:00:00 2 4 Este 9 Este 0 -- -- 100
2019-05-28 01:00:00 2.8 5 Sudeste 13 Norte 0 -- -- 100
2019-05-28 00:00:00 3.9 7 Noroeste 16 Noroeste 0 -- -- 100